Time;durP1;ratioP1;P1;durP2;ratioP2;P2;SDS_P1;SDS_P2;PMS_P1;PMS_P2;Temp;Humidity;BMP_temperature;BMP_pressure;BME280_temperature;BME280_humidity;BME280_pressure;Samples;Min_cycle;Max_cycle;Signal;HPM_P1;HPM_P2
2022/11/22 00:02:15;;;;;;;18.70;8.27;;;;;;;-1.69;75.42;99329.59;5030061;28;20046;-44
2022/11/22 00:04:41;;;;;;;19.30;7.70;;;;;;;-1.69;75.33;99321.06;5010611;28;20056;-43
2022/11/22 00:07:07;;;;;;;15.90;7.25;;;;;;;-1.69;75.30;99315.97;5029806;28;20096;-48
2022/11/22 00:09:33;;;;;;;18.35;8.55;;;;;;;-1.68;75.25;99326.19;5031107;28;20072;-45
2022/11/22 00:11:59;;;;;;;22.02;8.93;;;;;;;-1.64;75.24;99319.41;5019649;28;20083;-46
2022/11/22 00:14:25;;;;;;;20.25;8.13;;;;;;;-1.60;75.43;99321.16;5008852;28;20735;-44
2022/11/22 00:16:50;;;;;;;19.13;8.18;;;;;;;-1.56;74.95;99321.19;5044700;28;20038;-44
2022/11/22 00:19:16;;;;;;;15.73;7.43;;;;;;;-1.55;75.40;99310.16;5017724;28;20041;-46
2022/11/22 00:21:42;;;;;;;19.25;7.65;;;;;;;-1.62;74.85;99290.53;5029065;28;20038;-44
2022/11/22 00:24:10;;;;;;;17.83;8.38;;;;;;;-1.52;75.33;99302.56;5027642;28;20597;-47
2022/11/22 00:26:36;;;;;;;19.08;7.70;;;;;;;-1.80;75.04;99258.16;5023948;28;20033;-46
2022/11/22 00:29:02;;;;;;;18.23;7.75;;;;;;;-1.50;75.16;99302.53;5029938;28;20042;-43
2022/11/22 00:31:28;;;;;;;20.98;8.63;;;;;;;-1.49;75.16;99289.81;5028872;28;20128;-45
2022/11/22 00:33:54;;;;;;;21.40;8.65;;;;;;;-1.48;74.95;99286.44;5029301;28;20045;-44
2022/11/22 00:36:19;;;;;;;20.13;8.27;;;;;;;-1.77;75.21;99234.38;5020681;28;20785;-45
2022/11/22 00:38:45;;;;;;;24.38;9.45;;;;;;;-1.48;75.06;99288.13;5008050;28;20065;-44
2022/11/22 00:41:11;;;;;;;20.90;9.20;;;;;;;-1.50;75.09;99280.44;5016880;28;20049;-46
2022/11/22 00:43:37;;;;;;;22.13;8.82;;;;;;;-1.54;74.83;99283.81;5028897;28;20055;-45
2022/11/22 00:46:03;;;;;;;21.05;8.45;;;;;;;-1.47;74.96;99287.28;5030587;28;20037;-45
2022/11/22 00:48:28;;;;;;;18.30;7.75;;;;;;;-1.43;74.64;99278.81;5030411;28;20049;-48
2022/11/22 00:50:54;;;;;;;17.08;7.88;;;;;;;-1.42;75.01;99281.38;5029963;28;20539;-45
2022/11/22 00:53:21;;;;;;;18.25;8.05;;;;;;;-1.41;75.00;99269.47;5028965;28;20029;-46
2022/11/22 00:55:47;;;;;;;19.27;7.57;;;;;;;-1.39;74.97;99263.53;5029555;28;20052;-44
2022/11/22 00:58:13;;;;;;;26.75;8.90;;;;;;;-1.43;75.05;99254.16;5027178;28;20041;-45
2022/11/22 01:00:39;;;;;;;20.42;8.90;;;;;;;-1.42;75.13;99250.78;5029375;28;20049;-47
2022/11/22 01:03:05;;;;;;;23.52;8.63;;;;;;;-1.42;75.01;99253.34;5012250;28;20041;-43
2022/11/22 01:05:31;;;;;;;17.65;7.65;;;;;;;-1.46;74.99;99251.59;5013668;28;20107;-45
2022/11/22 01:07:57;;;;;;;20.02;8.38;;;;;;;-1.48;75.16;99248.19;5030431;28;20042;-49
2022/11/22 01:10:23;;;;;;;18.50;8.55;;;;;;;-1.42;75.04;99248.25;5028956;28;20041;-47
2022/11/22 01:12:49;;;;;;;18.08;7.68;;;;;;;-1.54;75.11;99215.00;5027612;28;20047;-43
2022/11/22 01:15:15;;;;;;;16.63;7.63;;;;;;;-1.56;75.33;99206.50;5027691;28;20053;-44
2022/11/22 01:17:40;;;;;;;22.80;9.05;;;;;;;-1.51;75.23;99206.50;5020664;28;20135;-44
2022/11/22 01:20:07;;;;;;;18.77;8.13;;;;;;;-1.30;75.16;99232.13;5016208;28;20049;-44
2022/11/22 01:22:33;;;;;;;16.63;8.18;;;;;;;-1.29;75.11;99237.25;5008544;28;20033;-46
2022/11/22 01:24:59;;;;;;;22.55;8.75;;;;;;;-1.34;75.16;99217.66;5025330;28;20398;-44
2022/11/22 01:27:24;;;;;;;22.90;8.00;;;;;;;-1.25;75.04;99222.81;5028277;28;20505;-46
2022/11/22 01:29:50;;;;;;;23.05;8.93;;;;;;;-1.29;74.97;99233.84;4995770;28;20049;-44
2022/11/22 01:32:16;;;;;;;23.90;9.30;;;;;;;-1.32;75.16;99228.75;5010537;28;20045;-44
2022/11/22 01:34:42;;;;;;;20.60;8.35;;;;;;;-1.32;75.30;99221.09;5028275;28;20120;-46
2022/11/22 01:37:07;;;;;;;20.63;8.52;;;;;;;-1.33;75.01;99229.59;5028467;28;20049;-48
2022/11/22 01:39:33;;;;;;;22.80;8.95;;;;;;;-1.36;74.94;99225.31;5026006;28;20037;-47
2022/11/22 01:41:59;;;;;;;20.67;7.78;;;;;;;-1.38;75.14;99227.00;5011331;28;20049;-46
2022/11/22 01:44:28;;;;;;;21.27;8.38;;;;;;;-1.35;75.32;99223.59;5027846;28;20053;-45
2022/11/22 01:47:00;;;;;;;19.58;8.25;;;;;;;-1.35;75.35;99221.91;5029418;28;20045;-46
2022/11/22 01:49:30;;;;;;;21.40;8.20;;;;;;;-1.31;75.57;99215.97;5027463;28;20045;-47
2022/11/22 01:52:03;;;;;;;19.15;8.50;;;;;;;-1.33;75.52;99209.19;5011997;28;20052;-45
2022/11/22 01:54:32;;;;;;;19.02;7.72;;;;;;;-1.29;75.65;99206.66;5026357;28;20693;-43
2022/11/22 01:57:07;;;;;;;24.25;8.85;;;;;;;-1.64;75.44;99141.91;5028071;28;20048;-47
2022/11/22 01:59:35;;;;;;;20.45;8.30;;;;;;;-1.33;75.54;99184.53;5035894;28;20083;-44
2022/11/22 02:02:01;;;;;;;24.70;9.65;;;;;;;-1.31;75.64;99187.94;5032369;28;20049;-45
2022/11/22 02:04:29;;;;;;;27.67;8.60;;;;;;;-1.31;75.27;99179.47;5009975;28;20033;-50
2022/11/22 02:07:01;;;;;;;22.77;8.63;;;;;;;-1.47;75.73;99147.94;5027644;28;20052;-48
2022/11/22 02:09:28;;;;;;;24.30;9.07;;;;;;;-1.27;75.89;99172.66;5011497;28;20394;-47
2022/11/22 02:11:56;;;;;;;17.33;7.75;;;;;;;-1.40;75.97;99136.06;5027407;28;20061;-46
2022/11/22 02:14:25;;;;;;;25.20;10.00;;;;;;;-1.43;75.95;99133.50;5011147;28;20033;-46
2022/11/22 02:16:50;;;;;;;24.33;9.83;;;;;;;-1.22;76.21;99159.09;5030425;28;20132;-46
2022/11/22 02:19:40;;;;;;;25.27;8.95;;;;;;;-1.16;76.29;99150.63;5047870;28;20202;-49
2022/11/22 02:22:26;;;;;;;20.98;8.52;;;;;;;-1.18;76.14;99144.66;5006018;28;20570;-47
2022/11/22 02:25:06;;;;;;;23.95;8.95;;;;;;;-1.20;76.10;99144.63;5032585;28;20520;-46
2022/11/22 02:27:32;;;;;;;18.85;7.40;;;;;;;-1.31;76.13;99118.28;5027718;28;20149;-44
2022/11/22 02:29:58;;;;;;;23.40;8.43;;;;;;;-1.23;76.30;99128.47;5027713;28;20135;-48
2022/11/22 02:32:24;;;;;;;20.10;7.70;;;;;;;-1.39;76.45;99105.47;5027352;28;20045;-45
2022/11/22 02:34:50;;;;;;;19.73;9.00;;;;;;;-1.21;76.51;99119.16;5011233;28;20044;-46
2022/11/22 02:37:20;;;;;;;20.60;8.15;;;;;;;-1.17;76.42;99126.81;5011213;28;20049;-45
2022/11/22 02:39:47;;;;;;;24.17;8.55;;;;;;;-1.15;76.52;99125.09;5028579;28;20124;-44
2022/11/22 02:42:13;;;;;;;21.65;8.90;;;;;;;-1.11;76.71;99118.34;5011222;28;20137;-45
2022/11/22 02:44:40;;;;;;;18.75;8.02;;;;;;;-1.10;76.66;99112.41;5026488;28;20059;-43
2022/11/22 02:47:05;;;;;;;20.25;8.65;;;;;;;-1.11;76.60;99103.03;5042778;28;20088;-44
2022/11/22 02:49:31;;;;;;;21.38;8.35;;;;;;;-1.04;76.74;99113.22;5012101;28;20049;-44
2022/11/22 02:51:58;;;;;;;23.17;8.23;;;;;;;-1.16;76.98;99082.63;5030976;28;20045;-44
2022/11/22 02:54:23;;;;;;;22.73;8.25;;;;;;;-1.01;76.67;99104.75;5030493;28;20039;-45
2022/11/22 02:56:49;;;;;;;17.48;8.18;;;;;;;-1.04;76.88;99090.28;5030049;28;20539;-45
2022/11/22 02:59:15;;;;;;;21.63;8.20;;;;;;;-1.00;76.74;99092.00;5016192;28;20044;-48
2022/11/22 03:01:42;;;;;;;16.42;6.65;;;;;;;-1.00;76.67;99086.06;5031948;28;20090;-44
2022/11/22 03:04:08;;;;;;;20.38;8.23;;;;;;;-1.30;76.47;99044.31;5031320;28;20045;-47
2022/11/22 03:06:34;;;;;;;19.90;7.95;;;;;;;-1.03;76.60;99079.22;5012296;28;20049;-44
2022/11/22 03:09:00;;;;;;;19.50;7.53;;;;;;;-1.01;76.97;99077.56;5029421;28;20041;-47
2022/11/22 03:11:25;;;;;;;20.55;8.70;;;;;;;-1.19;76.97;99046.91;5030290;28;20037;-45
2022/11/22 03:13:51;;;;;;;18.70;8.07;;;;;;;-1.13;77.07;99049.47;5029552;28;20037;-42
2022/11/22 03:16:17;;;;;;;18.83;7.18;;;;;;;-0.99;76.83;99064.78;4996809;28;20060;-45
2022/11/22 03:18:43;;;;;;;19.95;7.60;;;;;;;-1.17;76.89;99040.09;5028432;28;20041;-45
2022/11/22 03:21:09;;;;;;;18.85;7.97;;;;;;;-0.99;77.13;99057.13;5029900;28;20045;-45
2022/11/22 03:23:35;;;;;;;20.98;7.45;;;;;;;-0.96;77.00;99067.34;5030509;28;20408;-46
2022/11/22 03:26:08;;;;;;;22.33;7.63;;;;;;;-0.95;77.22;99051.19;5030176;28;20045;-47
2022/11/22 03:28:34;;;;;;;18.05;6.53;;;;;;;-0.93;77.34;99052.88;5030586;28;20529;-46
2022/11/22 03:31:00;;;;;;;15.90;7.28;;;;;;;-0.95;77.36;99043.56;5011156;28;20072;-46
2022/11/22 03:33:26;;;;;;;18.38;7.28;;;;;;;-0.99;76.95;99042.66;5029883;28;20052;-46
2022/11/22 03:35:56;;;;;;;23.83;8.45;;;;;;;-0.99;77.15;99039.28;5011221;28;20041;-43
2022/11/22 03:38:22;;;;;;;21.05;8.15;;;;;;;-1.00;77.17;99046.09;5031079;28;20091;-46
2022/11/22 03:40:48;;;;;;;20.20;8.00;;;;;;;-1.05;77.48;99018.88;5030023;28;20455;-47
2022/11/22 03:43:14;;;;;;;18.95;7.28;;;;;;;-1.12;77.35;99020.56;5029890;28;20048;-42
2022/11/22 03:45:46;;;;;;;17.05;7.22;;;;;;;-1.06;77.41;99022.28;5013051;28;20057;-46
2022/11/22 03:48:12;;;;;;;18.27;7.32;;;;;;;-1.23;77.50;98994.19;5045678;28;20156;-47
2022/11/22 03:50:39;;;;;;;21.95;8.18;;;;;;;-1.24;77.67;98989.94;5030412;28;20045;-46
2022/11/22 03:53:05;;;;;;;17.45;6.75;;;;;;;-1.08;77.89;99022.25;5045429;28;20136;-49
2022/11/22 03:55:31;;;;;;;20.58;7.30;;;;;;;-1.13;77.80;99010.34;5030993;28;20615;-46
2022/11/22 03:57:56;;;;;;;17.98;7.72;;;;;;;-1.01;78.01;99023.13;5031118;28;20048;-45
2022/11/22 04:00:22;;;;;;;19.52;8.50;;;;;;;-1.01;78.23;99026.53;5028868;28;20045;-44
2022/11/22 04:02:50;;;;;;;20.90;8.90;;;;;;;-1.06;78.13;99020.59;5031903;28;20045;-46
2022/11/22 04:05:16;;;;;;;23.75;8.68;;;;;;;-1.04;78.35;99010.34;5030370;28;20037;-45
2022/11/22 04:07:41;;;;;;;26.52;11.18;;;;;;;-1.04;78.41;99010.34;5028888;28;20044;-44
2022/11/22 04:10:08;;;;;;;23.27;8.93;;;;;;;-1.02;78.27;99008.66;5031372;28;20045;-47
2022/11/22 04:12:34;;;;;;;18.60;6.95;;;;;;;-1.20;78.75;98965.31;5028560;28;20060;-45
2022/11/22 04:15:06;;;;;;;22.90;8.23;;;;;;;-1.06;78.54;98995.06;5030412;28;20528;-47
2022/11/22 04:17:40;;;;;;;20.75;7.85;;;;;;;-1.07;78.89;99000.16;5031026;28;20437;-47
2022/11/22 04:23:17;;;;;;;19.35;8.27;;;;;;;-1.06;79.47;98987.41;5029735;28;20075;-48
2022/11/22 04:25:45;;;;;;;20.50;8.60;;;;;;;-1.24;79.67;98951.69;5029294;28;20037;-45
2022/11/22 04:28:14;;;;;;;24.08;9.38;;;;;;;-1.02;79.81;98981.47;5029186;28;20182;-45
2022/11/22 04:33:24;;;;;;;21.83;8.57;;;;;;;-1.02;80.19;98968.72;5030642;28;20131;-66
2022/11/22 04:35:50;;;;;;;20.05;9.13;;;;;;;-1.03;79.88;98972.09;5030564;28;20060;-64
2022/11/22 04:38:16;;;;;;;20.52;8.52;;;;;;;-1.04;80.15;98960.19;5030390;28;20041;-51
2022/11/22 04:40:43;;;;;;;20.40;7.90;;;;;;;-1.05;80.29;98960.22;5028709;28;20069;-48
2022/11/22 04:46:15;;;;;;;18.75;7.97;;;;;;;-1.01;80.45;98946.59;5028944;28;20144;-47
2022/11/22 04:48:41;;;;;;;17.30;6.68;;;;;;;-0.96;80.23;98943.22;5028239;28;20127;-47
2022/11/22 04:53:53;;;;;;;21.52;8.07;;;;;;;-0.93;80.17;98947.44;5027505;28;20049;-49
2022/11/22 04:56:19;;;;;;;16.90;7.90;;;;;;;-0.90;80.42;98955.13;5029295;28;20045;-45
2022/11/22 04:58:45;;;;;;;19.52;8.07;;;;;;;-0.85;80.05;98953.41;5028866;28;20118;-47
2022/11/22 05:01:11;;;;;;;19.15;7.75;;;;;;;-1.02;80.02;98912.59;5028046;28;20525;-43
2022/11/22 05:03:37;;;;;;;19.15;7.25;;;;;;;-0.80;79.92;98935.53;5029907;28;20531;-44
2022/11/22 05:06:04;;;;;;;21.23;8.27;;;;;;;-0.82;79.89;98930.44;5029119;28;20037;-45
2022/11/22 05:08:30;;;;;;;20.13;7.55;;;;;;;-0.81;79.88;98924.47;5009124;28;20068;-47
2022/11/22 05:10:56;;;;;;;17.65;8.15;;;;;;;-0.79;80.27;98921.94;5027509;28;20123;-52
2022/11/22 05:13:42;;;;;;;19.55;7.78;;;;;;;-0.73;79.94;98914.28;5025358;28;20129;-48
2022/11/22 05:16:10;;;;;;;17.42;7.43;;;;;;;-0.71;79.84;98915.09;5010320;28;20095;-49
2022/11/22 05:18:36;;;;;;;21.45;7.57;;;;;;;-1.02;80.07;98851.38;5027575;28;20041;-48
2022/11/22 05:21:07;;;;;;;21.75;7.45;;;;;;;-0.76;80.22;98901.50;5029477;28;20051;-48
2022/11/22 05:26:17;;;;;;;23.08;7.38;;;;;;;-0.79;80.32;98892.16;5021759;28;20613;-47
2022/11/22 05:28:43;;;;;;;17.63;6.90;;;;;;;-0.94;80.57;98857.31;5024196;28;20132;-49
2022/11/22 05:31:10;;;;;;;16.20;7.68;;;;;;;-0.73;80.17;98884.47;5027938;28;20041;-49
2022/11/22 05:33:38;;;;;;;21.23;7.78;;;;;;;-0.68;80.56;98875.09;5017831;28;20476;-50
2022/11/22 05:36:05;;;;;;;24.45;7.55;;;;;;;-0.64;80.43;98874.28;5014056;28;20124;-50
2022/11/22 05:38:34;;;;;;;17.23;6.95;;;;;;;-0.64;80.61;98883.63;5027723;28;20416;-43
2022/11/22 05:41:02;;;;;;;17.20;6.90;;;;;;;-0.61;80.59;98881.06;5044256;28;20092;-44
2022/11/22 05:43:28;;;;;;;16.73;6.95;;;;;;;-0.58;80.69;98876.81;5011739;28;20063;-49
2022/11/22 05:45:54;;;;;;;15.90;6.28;;;;;;;-0.58;80.46;98879.34;5028002;28;20060;-43
2022/11/22 05:48:19;;;;;;;16.17;6.03;;;;;;;-0.56;80.73;98877.63;5022514;28;20045;-44
2022/11/22 05:50:45;;;;;;;16.05;6.80;;;;;;;-0.73;80.81;98848.75;5028432;28;20041;-44
2022/11/22 05:53:11;;;;;;;18.08;7.18;;;;;;;-0.56;80.61;98869.97;5029309;28;20158;-43
2022/11/22 05:55:37;;;;;;;20.30;7.90;;;;;;;-0.66;81.24;98842.78;5029006;28;20041;-45
2022/11/22 05:58:02;;;;;;;14.77;6.25;;;;;;;-0.48;81.44;98855.50;5002393;28;20049;-46
2022/11/22 06:00:28;;;;;;;15.82;6.05;;;;;;;-0.46;81.16;98858.88;5001570;28;20127;-43
2022/11/22 06:03:01;;;;;;;16.92;7.30;;;;;;;-0.42;81.07;98854.63;5024095;28;20045;-46
2022/11/22 06:05:28;;;;;;;19.27;6.97;;;;;;;-0.37;81.12;98840.16;5027838;28;20460;-46
2022/11/22 06:07:58;;;;;;;17.33;6.55;;;;;;;-0.62;81.23;98797.69;5005871;28;20057;-45
2022/11/22 06:10:25;;;;;;;14.57;6.57;;;;;;;-0.33;81.29;98846.06;5010572;28;20115;-47
2022/11/22 06:12:51;;;;;;;16.40;6.65;;;;;;;-0.27;81.59;98835.84;5034622;28;20052;-45
2022/11/22 06:15:17;;;;;;;16.55;6.38;;;;;;;-0.26;81.47;98840.91;5024221;28;20132;-48
2022/11/22 06:17:44;;;;;;;15.98;6.63;;;;;;;-0.24;81.79;98835.81;5041335;28;20049;-47
2022/11/22 06:20:10;;;;;;;11.85;5.47;;;;;;;-0.39;81.99;98812.91;5022849;28;20044;-45
2022/11/22 06:22:36;;;;;;;13.00;5.32;;;;;;;-0.24;82.37;98831.56;5008734;28;20524;-45
2022/11/22 06:25:02;;;;;;;13.93;6.28;;;;;;;-0.21;82.50;98830.69;5022968;28;20123;-50
2022/11/22 06:27:29;;;;;;;14.85;5.80;;;;;;;-0.37;82.43;98804.41;5028165;28;20038;-50
2022/11/22 06:29:55;;;;;;;13.95;6.15;;;;;;;-0.28;82.70;98811.16;5027941;28;20052;-47
2022/11/22 06:32:20;;;;;;;13.20;5.68;;;;;;;-0.10;82.77;98827.22;5024032;28;20034;-47
2022/11/22 06:34:46;;;;;;;14.63;5.43;;;;;;;-0.01;82.90;98834.00;5019062;28;20042;-45
2022/11/22 06:37:15;;;;;;;17.52;6.13;;;;;;;-0.16;82.78;98788.94;5006377;28;20137;-45
2022/11/22 06:39:41;;;;;;;13.82;5.53;;;;;;;-0.10;82.75;98777.81;5022955;28;20037;-42
2022/11/22 06:42:07;;;;;;;12.50;5.13;;;;;;;0.11;82.90;98813.44;5014721;28;20063;-51
2022/11/22 06:44:33;;;;;;;16.00;5.80;;;;;;;0.15;83.27;98802.38;5047994;28;20056;-45
2022/11/22 06:46:59;;;;;;;11.75;5.45;;;;;;;-0.05;83.30;98771.81;5047869;28;20037;-46
2022/11/22 06:49:25;;;;;;;10.75;4.60;;;;;;;0.26;83.15;98817.63;5030726;28;20152;-44
2022/11/22 06:51:51;;;;;;;12.15;5.35;;;;;;;0.18;83.78;98771.69;5031091;28;20103;-43
2022/11/22 06:54:17;;;;;;;12.55;5.32;;;;;;;0.51;83.59;98801.25;5030932;28;20068;-52
2022/11/22 06:56:42;;;;;;;11.77;5.05;;;;;;;0.47;83.17;98778.28;5031110;28;20068;-47
2022/11/22 06:59:09;;;;;;;14.23;5.50;;;;;;;0.69;83.38;98797.66;5027957;28;20509;-46
2022/11/22 07:01:36;;;;;;;12.80;4.68;;;;;;;0.56;83.31;98779.03;5031140;28;20033;-43
2022/11/22 07:04:03;;;;;;;11.73;5.30;;;;;;;0.76;83.22;98804.41;5030364;28;20501;-44
2022/11/22 07:06:34;;;;;;;13.23;4.93;;;;;;;0.73;82.94;98802.72;5033069;28;20033;-42
2022/11/22 07:09:01;;;;;;;11.55;4.30;;;;;;;0.70;83.02;98791.69;5029420;28;20041;-47
2022/11/22 07:11:29;;;;;;;9.93;4.43;;;;;;;0.69;83.30;98800.22;5032239;28;20048;-45
2022/11/22 07:13:56;;;;;;;12.20;4.28;;;;;;;0.68;83.41;98793.44;5031277;28;20037;-44
2022/11/22 07:16:22;;;;;;;10.93;4.70;;;;;;;0.65;83.22;98804.53;5030204;28;20049;-43
2022/11/22 07:18:48;;;;;;;8.65;3.83;;;;;;;0.63;83.58;98774.72;5013555;28;20064;-44
2022/11/22 07:21:22;;;;;;;9.90;3.97;;;;;;;0.65;83.65;98785.75;5014686;28;20029;-43
2022/11/22 07:23:52;;;;;;;8.35;4.13;;;;;;;0.66;83.33;98783.22;5013797;28;20072;-45
2022/11/22 07:26:21;;;;;;;11.88;3.83;;;;;;;0.51;83.44;98759.47;5030058;28;20102;-49
2022/11/22 07:28:47;;;;;;;10.93;4.28;;;;;;;0.52;83.43;98758.63;5028754;28;20037;-45
2022/11/22 07:31:15;;;;;;;10.25;4.30;;;;;;;0.72;83.73;98785.72;5029188;28;20525;-49
2022/11/22 07:33:41;;;;;;;9.83;4.43;;;;;;;0.47;83.61;98732.25;5002754;28;20049;-47
2022/11/22 07:36:13;;;;;;;10.60;3.90;;;;;;;0.76;83.93;98778.84;5019907;28;20049;-46
2022/11/22 07:38:39;;;;;;;14.25;5.47;;;;;;;0.64;84.00;98761.91;5045452;28;20049;-51
2022/11/22 07:41:05;;;;;;;11.65;4.78;;;;;;;0.81;83.72;98779.66;5037251;28;20046;-52
2022/11/22 07:43:31;;;;;;;7.20;3.40;;;;;;;0.86;83.65;98777.88;5006143;28;20041;-50
2022/11/22 07:46:31;;;;;;;9.20;3.90;;;;;;;0.91;83.54;98777.84;5029352;28;20084;-50
2022/11/22 07:48:59;;;;;;;9.63;3.65;;;;;;;0.98;83.66;98779.47;5030312;28;20045;-50
2022/11/22 07:51:25;;;;;;;8.82;3.72;;;;;;;0.97;83.76;98778.63;5030264;28;20045;-49
2022/11/22 07:53:51;;;;;;;8.25;3.40;;;;;;;1.03;83.09;98775.16;5012364;28;20073;-48
2022/11/22 07:56:17;;;;;;;6.30;3.30;;;;;;;1.03;83.47;98777.72;5030055;28;20160;-52
2022/11/22 07:58:43;;;;;;;8.02;3.60;;;;;;;0.98;83.32;98767.53;5029786;28;20136;-49
2022/11/22 08:01:15;;;;;;;8.43;3.33;;;;;;;0.97;83.47;98758.16;5029852;28;20049;-49
2022/11/22 08:03:41;;;;;;;10.25;3.10;;;;;;;0.99;83.58;98761.56;5036847;28;20084;-51
2022/11/22 08:06:09;;;;;;;7.53;3.17;;;;;;;0.82;83.77;98736.16;5029624;28;20045;-49
2022/11/22 08:08:35;;;;;;;9.15;3.20;;;;;;;1.03;83.78;98773.44;5029232;28;20128;-47
2022/11/22 08:11:02;;;;;;;7.05;3.20;;;;;;;1.01;83.65;98767.50;5012740;28;20457;-52
2022/11/22 08:13:28;;;;;;;7.93;3.42;;;;;;;1.03;84.03;98759.81;5029498;28;20045;-53
2022/11/22 08:15:55;;;;;;;8.88;3.65;;;;;;;1.08;83.76;98760.59;5030896;28;20063;-45
2022/11/22 08:18:21;;;;;;;9.80;3.35;;;;;;;1.09;84.25;98767.41;5030504;28;20052;-49
2022/11/22 08:20:47;;;;;;;7.07;3.53;;;;;;;1.10;84.35;98772.50;5026395;28;20603;-54
2022/11/22 08:23:13;;;;;;;16.27;7.78;;;;;;;0.99;84.25;98751.31;5024817;28;20125;-48
2022/11/22 08:25:39;;;;;;;5.97;3.30;;;;;;;1.14;84.40;98766.50;5010687;28;20089;-52
2022/11/22 08:28:04;;;;;;;7.03;3.45;;;;;;;1.15;84.64;98764.78;5014528;28;20068;-50
2022/11/22 08:30:30;;;;;;;9.20;3.45;;;;;;;1.14;84.82;98756.25;5029124;28;20172;-53
2022/11/22 08:32:56;;;;;;;5.82;2.88;;;;;;;1.17;84.79;98758.78;5030524;28;20527;-51
2022/11/22 08:35:22;;;;;;;6.43;2.83;;;;;;;1.05;84.63;98730.75;5029315;28;20504;-49
2022/11/22 08:37:48;;;;;;;6.90;2.90;;;;;;;1.10;84.92;98731.53;5030395;28;20505;-51
2022/11/22 08:40:14;;;;;;;9.85;4.28;;;;;;;1.32;84.90;98756.88;5028691;28;20041;-48
2022/11/22 08:42:40;;;;;;;6.45;3.40;;;;;;;1.20;85.26;98732.31;5030097;28;20049;-51
2022/11/22 08:45:07;;;;;;;8.02;2.80;;;;;;;1.33;85.76;98745.78;5030095;28;20057;-50
2022/11/22 08:47:32;;;;;;;5.07;2.60;;;;;;;1.34;85.80;98743.22;5028606;28;20067;-50
2022/11/22 08:49:58;;;;;;;5.47;2.47;;;;;;;1.20;85.66;98711.84;5012473;28;20056;-53
2022/11/22 08:52:24;;;;;;;6.00;3.03;;;;;;;1.33;85.90;98733.00;5030484;28;20034;-49
2022/11/22 08:54:50;;;;;;;6.18;2.80;;;;;;;1.15;86.46;98701.63;5012469;28;20708;-56
2022/11/22 08:57:16;;;;;;;7.22;3.15;;;;;;;1.21;86.81;98709.22;5029062;28;20068;-53
2022/11/22 08:59:42;;;;;;;6.30;2.90;;;;;;;1.36;86.77;98738.91;5029024;28;20092;-53
2022/11/22 09:02:08;;;;;;;6.07;2.80;;;;;;;1.37;86.56;98732.06;5028861;28;20041;-52
2022/11/22 09:04:34;;;;;;;6.95;2.80;;;;;;;1.37;86.78;98722.69;5012698;28;20041;-54
2022/11/22 09:07:00;;;;;;;8.25;3.53;;;;;;;1.46;86.71;98726.84;5030240;28;20037;-53
2022/11/22 09:09:26;;;;;;;6.47;3.05;;;;;;;1.51;86.91;98730.19;5011677;28;20128;-48
2022/11/22 09:11:52;;;;;;;7.72;3.63;;;;;;;1.49;86.58;98725.09;5029731;28;20057;-47
2022/11/22 09:14:18;;;;;;;8.63;3.70;;;;;;;1.55;86.72;98730.13;5028289;28;20571;-48
2022/11/22 09:16:44;;;;;;;11.32;3.90;;;;;;;1.56;86.96;98728.44;5029736;28;20597;-45
2022/11/22 09:19:10;;;;;;;6.32;2.92;;;;;;;1.38;86.63;98680.84;5028102;28;20053;-50
2022/11/22 09:21:36;;;;;;;6.63;3.20;;;;;;;1.58;87.08;98713.88;5028361;28;20052;-51
2022/11/22 09:24:01;;;;;;;6.38;3.15;;;;;;;1.62;87.03;98720.66;5011489;28;20223;-48
2022/11/22 09:26:29;;;;;;;4.68;2.78;;;;;;;1.65;87.57;98726.56;5044129;28;20052;-52
2022/11/22 09:28:55;;;;;;;6.35;2.95;;;;;;;1.67;87.50;98714.56;5040779;28;20053;-46
2022/11/22 09:31:22;;;;;;;5.70;2.90;;;;;;;1.70;87.84;98721.38;5028970;28;20048;-47
2022/11/22 09:33:48;;;;;;;6.75;3.10;;;;;;;1.59;87.86;98689.94;5044855;28;20045;-48
2022/11/22 09:36:17;;;;;;;7.80;3.15;;;;;;;1.77;88.05;98711.91;5028041;28;20099;-46
2022/11/22 09:38:43;;;;;;;7.82;2.75;;;;;;;1.76;87.96;98711.06;5027962;28;20076;-46
2022/11/22 09:41:15;;;;;;;5.32;2.72;;;;;;;1.75;89.06;98713.63;5027855;28;20037;-47
2022/11/22 09:43:59;;;;;;;6.15;2.70;;;;;;;1.75;90.79;98711.91;5027771;28;20084;-48
2022/11/22 09:46:31;;;;;;;5.93;2.53;;;;;;;1.75;92.36;98705.94;5028229;28;20394;-49
2022/11/22 09:49:19;;;;;;;5.35;3.00;;;;;;;1.74;94.22;98702.53;5027830;28;20647;-48
2022/11/22 09:52:06;;;;;;;6.20;2.55;;;;;;;1.75;96.26;98714.47;5029148;28;20064;-52
2022/11/22 09:54:51;;;;;;;5.85;2.95;;;;;;;1.75;97.70;98711.06;5011807;28;20132;-49
2022/11/22 09:57:20;;;;;;;11.02;4.05;;;;;;;1.82;99.55;98708.41;5027820;28;20544;-46
2022/11/22 09:59:46;;;;;;;;;;;;;;;1.86;100.00;98715.16;5029063;28;20038;-46
2022/11/22 10:02:25;;;;;;;5.25;2.67;;;;;;;1.91;100.00;98712.53;5027676;28;19982;-47
2022/11/22 10:04:56;;;;;;;9.45;3.80;;;;;;;1.95;100.00;98714.16;5011210;28;20401;-47
2022/11/22 10:07:38;;;;;;;8.85;4.40;;;;;;;1.98;100.00;98715.00;5029058;28;20033;-49
2022/11/22 10:10:10;;;;;;;5.10;2.80;;;;;;;1.99;100.00;98710.72;4994047;28;20068;-48
2022/11/22 10:12:44;;;;;;;5.40;2.95;;;;;;;2.01;100.00;98702.13;5011366;28;20053;-46
2022/11/22 10:15:26;;;;;;;7.95;2.90;;;;;;;2.01;100.00;98708.94;5026597;28;20049;-52
2022/11/22 10:17:54;;;;;;;7.65;3.78;;;;;;;1.98;100.00;98699.63;5027511;28;20041;-50
2022/11/22 10:20:28;;;;;;;7.57;3.33;;;;;;;2.03;100.00;98702.94;5027318;28;20535;-49
2022/11/22 10:22:54;;;;;;;6.57;2.85;;;;;;;2.08;100.00;98697.75;5027062;28;20102;-48
2022/11/22 10:25:39;;;;;;;9.75;4.03;;;;;;;2.12;100.00;98699.38;5043691;28;20044;-50
2022/11/22 10:28:17;;;;;;;7.57;3.33;;;;;;;2.16;100.00;98698.44;5043377;28;20072;-48
2022/11/22 10:30:54;;;;;;;8.57;3.55;;;;;;;2.17;100.00;98694.19;5019536;28;20038;-48
2022/11/22 10:33:27;;;;;;;5.57;3.15;;;;;;;2.13;100.00;98688.25;5010766;28;20045;-54
2022/11/22 10:36:03;;;;;;;8.00;3.33;;;;;;;2.14;100.00;98692.53;5027085;28;20045;-50
2022/11/22 10:38:54;;;;;;;5.07;2.92;;;;;;;2.14;100.00;98689.97;5027238;28;20037;-53
2022/11/22 10:41:42;;;;;;;5.65;3.15;;;;;;;2.15;100.00;98695.94;5027131;28;20041;-49
2022/11/22 10:44:39;;;;;;;8.13;3.20;;;;;;;2.18;100.00;98686.47;5028311;28;20521;-53
2022/11/22 10:47:07;;;;;;;4.18;2.40;;;;;;;2.21;100.00;98681.28;5027402;28;20092;-47
2022/11/22 10:49:59;;;;;;;4.32;2.58;;;;;;;2.20;100.00;98679.56;5027156;28;20128;-49
2022/11/22 10:52:40;;;;;;;5.95;2.85;;;;;;;2.22;100.00;98679.56;5026875;28;20120;-49
2022/11/22 10:55:21;;;;;;;4.55;2.92;;;;;;;2.25;100.00;98661.56;5011466;28;20057;-48
2022/11/22 10:57:46;;;;;;;;;;;;;;;2.34;100.00;98664.81;5027653;28;20060;-50
2022/11/22 11:00:19;;;;;;;6.43;2.58;;;;;;;2.19;100.00;98639.44;5010506;28;19920;-48
2022/11/22 11:03:05;;;;;;;6.07;2.90;;;;;;;2.38;100.00;98663.03;5007758;28;20137;-51
2022/11/22 11:05:45;;;;;;;6.78;2.53;;;;;;;2.32;100.00;98635.78;5024172;28;20042;-50
2022/11/22 11:08:12;;;;;;;;;;;;;;;2.42;100.00;98650.13;5009554;28;20030;-49
2022/11/22 11:10:39;;;;;;;4.55;2.50;;;;;;;2.39;100.00;98647.63;5023599;28;19927;-53
2022/11/22 11:13:23;;;;;;;6.53;2.92;;;;;;;2.41;100.00;98650.13;5030320;28;20041;-48
2022/11/22 11:15:54;;;;;;;7.65;3.30;;;;;;;2.45;100.00;98644.09;5030482;28;20133;-54
2022/11/22 11:18:26;;;;;;;4.97;2.65;;;;;;;2.44;100.00;98638.13;5030650;28;20068;-48
2022/11/22 11:20:52;;;;;;;5.47;2.80;;;;;;;2.41;100.00;98642.44;5046844;28;20807;-47
2022/11/22 11:23:18;;;;;;;5.35;2.95;;;;;;;2.40;100.00;98646.75;5014111;28;20524;-51
2022/11/22 11:25:46;;;;;;;5.63;3.05;;;;;;;2.38;100.00;98634.81;5014044;28;20069;-47
2022/11/22 11:28:19;;;;;;;7.65;2.75;;;;;;;2.39;100.00;98627.09;5030585;28;20045;-53
2022/11/22 11:31:05;;;;;;;6.80;2.70;;;;;;;2.42;100.00;98631.31;5029900;28;20076;-51
2022/11/22 11:33:37;;;;;;;4.35;2.60;;;;;;;2.40;100.00;98636.50;5010118;28;20415;-48
2022/11/22 11:36:11;;;;;;;5.30;2.88;;;;;;;2.36;100.00;98641.69;5010332;28;20046;-50
2022/11/22 11:38:48;;;;;;;7.40;3.88;;;;;;;2.39;100.00;98637.38;5011736;28;20042;-48
2022/11/22 11:41:27;;;;;;;10.05;4.65;;;;;;;2.41;100.00;98634.75;5045221;28;20045;-49
2022/11/22 11:44:17;;;;;;;6.28;3.20;;;;;;;2.39;100.00;98631.38;5030273;28;20087;-48
2022/11/22 11:46:44;;;;;;;7.97;2.88;;;;;;;2.39;100.00;98623.69;5019294;28;20041;-51
2022/11/22 11:49:13;;;;;;;8.02;2.88;;;;;;;2.41;100.00;98627.06;5046815;28;20420;-50
2022/11/22 11:51:47;;;;;;;6.65;3.55;;;;;;;2.32;100.00;98609.28;4997382;28;20467;-47
2022/11/22 11:54:28;;;;;;;6.97;2.85;;;;;;;2.40;100.00;98621.13;5031711;28;20041;-48